createdAt,value
2019-01-27T00:00:24.855Z,0
2019-01-27T00:01:34.698Z,0
2019-01-27T00:02:44.783Z,0
2019-01-27T00:03:54.887Z,0
2019-01-27T00:05:04.997Z,0
2019-01-27T00:06:14.802Z,0
2019-01-27T00:07:25.150Z,0
2019-01-27T00:08:35.285Z,0
2019-01-27T00:09:45.115Z,0
2019-01-27T00:10:55.204Z,0
2019-01-27T00:12:05.303Z,0
2019-01-27T00:13:15.375Z,0
2019-01-27T00:14:25.453Z,0
2019-01-27T00:15:35.570Z,0
2019-01-27T00:16:45.760Z,0
2019-01-27T00:17:55.905Z,0
2019-01-27T00:19:05.997Z,0
2019-01-27T00:20:16.381Z,0
2019-01-27T00:21:26.239Z,0
2019-01-27T00:22:36.372Z,0
2019-01-27T00:23:46.446Z,0
2019-01-27T00:24:56.285Z,0
2019-01-27T00:26:06.117Z,0
2019-01-27T00:27:16.033Z,0
2019-01-27T00:28:26.099Z,0
2019-01-27T00:29:35.938Z,0
2019-01-27T00:30:46.027Z,0
2019-01-27T00:31:56.210Z,0
2019-01-27T00:33:06.296Z,0
2019-01-27T00:34:16.104Z,0
2019-01-27T00:35:26.191Z,0
2019-01-27T00:36:36.472Z,0
2019-01-27T00:38:03.684Z,0
2019-01-27T00:39:13.763Z,0
2019-01-27T00:40:23.593Z,0
2019-01-27T00:41:33.862Z,0
2019-01-27T00:42:44.220Z,0
2019-01-27T00:43:54.346Z,0
2019-01-27T00:45:04.434Z,0
2019-01-27T00:46:14.495Z,0
2019-01-27T00:47:24.563Z,0
2019-01-27T00:48:34.379Z,0
2019-01-27T00:49:44.207Z,0
2019-01-27T00:50:54.294Z,0
2019-01-27T00:52:04.393Z,0
2019-01-27T00:53:14.469Z,0
2019-01-27T00:54:24.583Z,0
2019-01-27T00:55:34.437Z,0
2019-01-27T00:56:44.519Z,0
2019-01-27T00:57:54.597Z,0
2019-01-27T00:59:04.680Z,0
2019-01-27T01:00:15.362Z,0
2019-01-27T01:01:25.235Z,0
2019-01-27T01:02:35.084Z,0
2019-01-27T01:03:45.148Z,0
2019-01-27T01:04:54.976Z,0
2019-01-27T01:06:08.345Z,0
2019-01-27T01:07:18.116Z,0
2019-01-27T01:08:28.221Z,0
2019-01-27T01:09:38.080Z,0
2019-01-27T01:10:48.165Z,0
2019-01-27T01:11:58.290Z,0
2019-01-27T01:13:08.374Z,0
2019-01-27T01:14:18.467Z,0
2019-01-27T01:15:28.769Z,0
2019-01-27T01:16:38.876Z,0
2019-01-27T01:17:48.924Z,0
2019-01-27T01:18:58.992Z,0
2019-01-27T01:20:09.059Z,0
2019-01-27T01:21:19.124Z,0
2019-01-27T01:22:29.191Z,0
2019-01-27T01:23:39.003Z,0
2019-01-27T01:24:49.074Z,0
2019-01-27T01:25:59.221Z,0
2019-01-27T01:27:09.281Z,0
2019-01-27T01:28:19.344Z,0
2019-01-27T01:29:29.416Z,0
2019-01-27T01:30:39.486Z,0
2019-01-27T01:31:49.285Z,0
2019-01-27T01:32:59.101Z,0
2019-01-27T01:34:09.411Z,0
2019-01-27T01:35:19.483Z,0
2019-01-27T01:36:29.991Z,0
2019-01-27T01:37:40.108Z,0
2019-01-27T01:38:49.968Z,0
2019-01-27T01:40:00.013Z,0
2019-01-27T01:41:10.074Z,0
2019-01-27T01:42:20.181Z,0
2019-01-27T01:43:30.260Z,0
2019-01-27T01:44:40.330Z,0
2019-01-27T01:45:50.433Z,0
2019-01-27T01:47:01.046Z,0
2019-01-27T01:48:11.284Z,0
2019-01-27T01:49:21.101Z,0
2019-01-27T01:50:30.957Z,0
2019-01-27T01:51:40.780Z,0
2019-01-27T01:52:50.575Z,0
2019-01-27T01:54:00.642Z,0
2019-01-27T01:55:11.021Z,0
2019-01-27T01:56:20.821Z,0
2019-01-27T01:57:30.947Z,0
2019-01-27T01:58:40.852Z,0
2019-01-27T01:59:50.977Z,0
2019-01-27T02:01:01.031Z,0
2019-01-27T02:02:11.162Z,0
2019-01-27T02:03:20.962Z,0
2019-01-27T02:04:31.027Z,0
2019-01-27T02:05:41.085Z,0
2019-01-27T02:06:50.887Z,0
2019-01-27T02:08:00.956Z,0
2019-01-27T02:09:11.357Z,0
2019-01-27T02:10:21.430Z,0
2019-01-27T02:11:31.539Z,0
2019-01-27T02:12:41.335Z,0
2019-01-27T02:13:51.431Z,0
2019-01-27T02:15:01.513Z,0
2019-01-27T02:16:11.600Z,0
2019-01-27T02:17:21.574Z,0
2019-01-27T02:18:31.709Z,0
2019-01-27T02:19:41.767Z,0
2019-01-27T02:20:51.577Z,0
2019-01-27T02:22:01.405Z,0
2019-01-27T02:23:11.460Z,0
2019-01-27T02:24:21.526Z,0
2019-01-27T02:25:31.570Z,0
2019-01-27T02:26:41.612Z,0
2019-01-27T02:27:51.714Z,0
2019-01-27T02:29:01.585Z,0
2019-01-27T02:30:11.752Z,0
2019-01-27T02:31:21.873Z,0
2019-01-27T02:32:31.939Z,0
2019-01-27T02:33:41.773Z,0
2019-01-27T02:34:51.907Z,0
2019-01-27T02:36:01.981Z,0
2019-01-27T02:37:12.059Z,0
2019-01-27T02:38:22.168Z,0
2019-01-27T02:39:32.203Z,0
2019-01-27T02:40:42.336Z,0
2019-01-27T02:41:52.418Z,0
2019-01-27T02:43:02.503Z,0
2019-01-27T02:44:12.307Z,0
2019-01-27T02:45:22.390Z,0
2019-01-27T02:46:32.512Z,0
2019-01-27T02:47:42.592Z,0
2019-01-27T02:48:52.639Z,0
2019-01-27T02:50:02.499Z,0
2019-01-27T02:51:12.552Z,0
2019-01-27T02:52:22.672Z,0
2019-01-27T02:53:32.761Z,0
2019-01-27T02:54:42.827Z,0
2019-01-27T02:55:53.122Z,0
2019-01-27T02:57:03.177Z,0
2019-01-27T02:58:13.246Z,0
2019-01-27T02:59:23.044Z,0
2019-01-27T03:00:33.102Z,0
2019-01-27T03:01:43.401Z,0
2019-01-27T03:02:57.905Z,0
2019-01-27T03:34:41.136Z,0
2019-01-27T03:35:51.532Z,0
2019-01-27T03:37:03.141Z,0
2019-01-27T03:38:13.306Z,0
2019-01-27T03:39:23.167Z,0
2019-01-27T03:40:33.512Z,0
2019-01-27T03:41:43.634Z,0
2019-01-27T03:42:53.693Z,0
2019-01-27T03:44:05.785Z,0
2019-01-27T03:45:15.891Z,0
2019-01-27T03:46:26.170Z,0
2019-01-27T03:47:35.973Z,0
2019-01-27T03:48:45.790Z,0
2019-01-27T03:49:55.861Z,0
2019-01-27T03:51:06.077Z,0
2019-01-27T03:52:16.146Z,0
2019-01-27T03:53:26.197Z,0
2019-01-27T03:54:36.264Z,0
2019-01-27T03:55:46.327Z,0
2019-01-27T03:56:56.391Z,0
2019-01-27T03:58:08.584Z,0
2019-01-27T03:59:18.192Z,0
2019-01-27T04:00:28.052Z,0
2019-01-27T04:01:38.154Z,0
2019-01-27T04:02:48.215Z,0
2019-01-27T04:03:58.309Z,0
2019-01-27T04:05:08.468Z,0
2019-01-27T04:06:18.015Z,0
2019-01-27T04:07:28.181Z,0
2019-01-27T04:08:38.245Z,0
2019-01-27T04:09:48.300Z,0
2019-01-27T04:10:58.636Z,0
2019-01-27T04:12:08.690Z,0
2019-01-27T04:13:18.525Z,0
2019-01-27T04:14:28.615Z,0
2019-01-27T04:15:38.719Z,0
2019-01-27T04:16:48.768Z,0
2019-01-27T04:17:58.038Z,0
2019-01-27T04:19:09.043Z,0
2019-01-27T04:20:19.230Z,0
2019-01-27T04:21:29.291Z,0
2019-01-27T04:22:39.784Z,0
2019-01-27T04:23:49.862Z,0
2019-01-27T04:24:59.681Z,0
2019-01-27T04:26:09.923Z,0
2019-01-27T04:27:19.984Z,0
2019-01-27T04:28:29.801Z,0
2019-01-27T04:29:39.874Z,0
2019-01-27T04:30:49.925Z,0
2019-01-27T04:32:00.045Z,0
2019-01-27T04:33:10.802Z,0
2019-01-27T04:34:20.857Z,0
2019-01-27T04:35:30.960Z,0
2019-01-27T04:36:41.032Z,0
2019-01-27T04:37:50.843Z,0
2019-01-27T04:39:00.894Z,0
2019-01-27T04:40:10.976Z,0
2019-01-27T04:41:21.281Z,0
2019-01-27T04:42:31.342Z,0
2019-01-27T04:43:41.145Z,0
2019-01-27T04:44:51.211Z,0
2019-01-27T04:46:01.266Z,0
2019-01-27T04:47:11.341Z,0
2019-01-27T04:48:21.632Z,0
2019-01-27T04:49:31.454Z,0
2019-01-27T04:50:41.252Z,0
2019-01-27T04:51:51.312Z,0
2019-01-27T04:53:01.378Z,0
2019-01-27T04:54:11.453Z,0
2019-01-27T04:55:21.553Z,0
2019-01-27T04:56:31.350Z,0
2019-01-27T04:57:41.467Z,0
2019-01-27T04:58:51.280Z,0
2019-01-27T05:00:01.566Z,0
2019-01-27T05:01:11.615Z,0
2019-01-27T05:02:21.413Z,0
2019-01-27T05:03:31.725Z,0
2019-01-27T05:04:41.604Z,0
2019-01-27T05:05:51.666Z,0
2019-01-27T05:07:03.081Z,0
2019-01-27T05:08:13.225Z,0
2019-01-27T05:09:23.515Z,0
2019-01-27T05:10:33.818Z,0
2019-01-27T05:11:43.627Z,0
2019-01-27T05:12:53.689Z,0
2019-01-27T05:14:03.788Z,0
2019-01-27T05:15:13.613Z,0
2019-01-27T05:16:23.697Z,0
2019-01-27T05:17:33.746Z,0
2019-01-27T05:18:43.803Z,0
2019-01-27T05:19:53.949Z,0
2019-01-27T05:21:04.552Z,0
2019-01-27T05:22:14.439Z,0
2019-01-27T05:23:24.494Z,0
2019-01-27T05:24:34.553Z,0
2019-01-27T05:25:44.602Z,0
2019-01-27T05:26:54.677Z,0
2019-01-27T05:28:04.715Z,0
2019-01-27T05:29:14.778Z,0
2019-01-27T05:30:24.854Z,0
2019-01-27T05:31:34.979Z,0
2019-01-27T05:32:44.771Z,0
2019-01-27T05:33:54.313Z,0
2019-01-27T05:35:04.353Z,0
2019-01-27T05:36:14.404Z,0
2019-01-27T05:37:23.992Z,0
2019-01-27T05:38:34.052Z,0
2019-01-27T05:39:44.112Z,0
2019-01-27T05:40:54.175Z,0
2019-01-27T05:42:04.261Z,0
2019-01-27T05:43:14.311Z,0
2019-01-27T05:44:23.856Z,0
2019-01-27T05:45:33.915Z,0
2019-01-27T05:46:43.974Z,0
2019-01-27T05:47:53.799Z,0
2019-01-27T05:49:04.698Z,0
2019-01-27T05:50:15.227Z,0
2019-01-27T05:51:25.283Z,0
2019-01-27T05:52:35.090Z,0
2019-01-27T05:53:44.902Z,0
2019-01-27T05:54:55.007Z,0
2019-01-27T05:56:05.966Z,0
2019-01-27T05:57:16.043Z,0
2019-01-27T05:58:26.114Z,0
2019-01-27T05:59:35.962Z,0
2019-01-27T06:00:45.782Z,0
2019-01-27T06:01:55.833Z,0
2019-01-27T06:03:06.398Z,0
2019-01-27T06:04:16.556Z,0
2019-01-27T06:05:26.713Z,0
2019-01-27T06:06:36.586Z,0
2019-01-27T06:07:46.407Z,0
2019-01-27T06:08:56.493Z,0
2019-01-27T06:10:06.289Z,0
2019-01-27T06:11:16.352Z,0
2019-01-27T06:12:26.414Z,0
2019-01-27T06:13:36.459Z,0
2019-01-27T06:14:46.528Z,0
2019-01-27T06:15:56.582Z,0
2019-01-27T06:17:07.186Z,0
2019-01-27T06:18:17.249Z,0
2019-01-27T06:19:27.310Z,0
2019-01-27T06:20:37.176Z,0
2019-01-27T06:21:47.237Z,0
2019-01-27T06:22:57.294Z,0
2019-01-27T06:24:21.732Z,0
2019-01-27T06:25:33.653Z,0
2019-01-27T06:26:43.725Z,0
2019-01-27T06:27:53.927Z,0
2019-01-27T06:29:05.265Z,0
2019-01-27T06:30:15.373Z,0
2019-01-27T06:31:25.428Z,5
2019-01-27T06:32:35.481Z,5
2019-01-27T06:33:45.286Z,5
2019-01-27T06:34:55.353Z,5
2019-01-27T06:36:06.171Z,5
2019-01-27T06:37:16.271Z,5
2019-01-27T06:38:26.613Z,5
2019-01-27T06:39:36.671Z,5
2019-01-27T06:40:46.775Z,10
2019-01-27T06:41:57.148Z,10
2019-01-27T06:43:06.941Z,10
2019-01-27T06:44:17.007Z,10
2019-01-27T06:45:27.549Z,10
2019-01-27T06:46:37.627Z,10
2019-01-27T06:47:47.489Z,15
2019-01-27T06:48:57.594Z,15
2019-01-27T06:50:09.114Z,15
2019-01-27T06:51:18.908Z,15
2019-01-27T06:52:28.970Z,15
2019-01-27T06:53:39.068Z,20
2019-01-27T06:54:49.106Z,20
2019-01-27T06:55:59.409Z,20
2019-01-27T06:57:10.786Z,20
2019-01-27T06:58:20.832Z,25
2019-01-27T06:59:30.934Z,25
2019-01-27T07:00:40.999Z,25
2019-01-27T07:01:50.809Z,25
2019-01-27T07:03:00.859Z,25
2019-01-27T07:04:10.900Z,25
2019-01-27T07:05:20.958Z,30
2019-01-27T07:06:31.018Z,30
2019-01-27T07:07:41.204Z,35
2019-01-27T07:08:51.311Z,40
2019-01-27T07:10:03.021Z,35
2019-01-27T07:11:13.062Z,40
2019-01-27T07:12:23.125Z,40
2019-01-27T07:13:32.918Z,40
2019-01-27T07:14:42.961Z,40
2019-01-27T07:15:52.846Z,45
2019-01-27T07:17:03.695Z,45
2019-01-27T07:18:13.742Z,45
2019-01-27T07:19:23.551Z,40
2019-01-27T07:20:33.390Z,40
2019-01-27T07:21:43.451Z,40
2019-01-27T07:22:53.494Z,40
2019-01-27T07:24:04.608Z,45
2019-01-27T07:25:14.401Z,45
2019-01-27T07:26:24.445Z,50
2019-01-27T07:27:34.694Z,55
2019-01-27T07:28:44.245Z,60
2019-01-27T07:29:54.301Z,60
2019-01-27T07:31:04.369Z,55
2019-01-27T07:32:14.452Z,60
2019-01-27T07:33:24.584Z,60
2019-01-27T07:34:34.672Z,55
2019-01-27T07:35:44.735Z,55
2019-01-27T07:36:54.805Z,65
2019-01-27T07:38:04.606Z,70
2019-01-27T07:39:14.403Z,65
2019-01-27T07:40:24.472Z,60
2019-01-27T07:41:34.303Z,65
2019-01-27T07:42:44.127Z,70
2019-01-27T07:43:54.165Z,75
2019-01-27T07:45:04.019Z,80
2019-01-27T07:46:14.102Z,80
2019-01-27T07:47:24.214Z,80
2019-01-27T07:48:34.003Z,80
2019-01-27T07:49:44.533Z,80
2019-01-27T07:50:54.669Z,80
2019-01-27T07:52:04.494Z,80
2019-01-27T07:53:14.563Z,80
2019-01-27T07:54:24.364Z,80
2019-01-27T07:55:34.672Z,65
2019-01-27T07:56:44.757Z,75
2019-01-27T07:57:54.590Z,75
2019-01-27T07:59:04.651Z,85
2019-01-27T08:00:15.172Z,85
2019-01-27T08:01:25.218Z,85
2019-01-27T08:02:35.323Z,85
2019-01-27T08:03:45.401Z,85
2019-01-27T08:04:55.447Z,85
2019-01-27T08:06:05.503Z,85
2019-01-27T08:07:15.559Z,85
2019-01-27T08:08:25.702Z,85
2019-01-27T08:09:35.764Z,90
2019-01-27T08:10:45.816Z,85
2019-01-27T08:11:55.886Z,90
2019-01-27T08:13:06.243Z,90
2019-01-27T08:14:16.052Z,90
2019-01-27T08:15:25.849Z,90
2019-01-27T08:16:36.143Z,90
2019-01-27T08:17:46.216Z,90
2019-01-27T08:18:56.284Z,85
2019-01-27T08:20:06.581Z,85
2019-01-27T08:21:16.651Z,85
2019-01-27T08:22:26.733Z,90
2019-01-27T08:23:36.824Z,95
2019-01-27T08:24:46.648Z,95
2019-01-27T08:25:56.721Z,100
2019-01-27T08:27:06.804Z,95
2019-01-27T08:28:16.869Z,110
2019-01-27T08:29:26.982Z,110
2019-01-27T08:30:36.862Z,105
2019-01-27T08:31:46.955Z,115
2019-01-27T08:32:56.766Z,100
2019-01-27T08:34:06.844Z,95
2019-01-27T08:35:16.906Z,95
2019-01-27T08:36:27.400Z,95
2019-01-27T08:37:37.476Z,95
2019-01-27T08:38:47.536Z,100
2019-01-27T08:39:57.404Z,110
2019-01-27T08:41:07.763Z,105
2019-01-27T08:42:17.866Z,110
2019-01-27T08:43:27.955Z,115
2019-01-27T08:44:38.029Z,115
2019-01-27T08:45:47.855Z,105
2019-01-27T08:46:57.954Z,105
2019-01-27T08:48:07.995Z,120
2019-01-27T08:49:18.095Z,120
2019-01-27T08:50:28.151Z,115
2019-01-27T08:51:37.727Z,125
2019-01-27T08:52:47.825Z,125
2019-01-27T08:53:58.137Z,130
2019-01-27T08:55:08.210Z,155
2019-01-27T08:56:18.259Z,155
2019-01-27T08:57:28.343Z,175
2019-01-27T08:58:37.633Z,145
2019-01-27T08:59:47.740Z,140
2019-01-27T09:00:57.808Z,145
2019-01-27T09:02:08.318Z,145
2019-01-27T09:03:18.388Z,115
2019-01-27T09:04:28.450Z,105
2019-01-27T09:05:38.524Z,105
2019-01-27T09:06:48.571Z,115
2019-01-27T09:07:58.635Z,140
2019-01-27T09:09:08.804Z,145
2019-01-27T09:10:18.917Z,125
2019-01-27T09:11:28.975Z,115
2019-01-27T09:12:39.063Z,120
2019-01-27T09:13:50.411Z,120
2019-01-27T09:15:01.430Z,110
2019-01-27T09:16:12.717Z,115
2019-01-27T09:17:22.931Z,125
2019-01-27T09:18:33.253Z,125
2019-01-27T09:19:44.321Z,125
2019-01-27T09:20:55.363Z,125
2019-01-27T09:22:06.550Z,130
2019-01-27T09:23:17.355Z,125
2019-01-27T09:24:28.152Z,125
2019-01-27T09:25:38.474Z,115
2019-01-27T09:26:48.781Z,135
2019-01-27T09:27:58.858Z,185
2019-01-27T09:29:08.952Z,180
2019-01-27T09:30:19.023Z,180
2019-01-27T09:31:28.839Z,175
2019-01-27T09:32:38.912Z,225
2019-01-27T09:33:48.740Z,200
2019-01-27T09:34:58.810Z,225
2019-01-27T09:36:08.877Z,205
2019-01-27T09:37:18.902Z,225
2019-01-27T09:38:29.300Z,245
2019-01-27T09:39:39.409Z,260
2019-01-27T09:40:49.531Z,240
2019-01-27T09:41:59.574Z,265
2019-01-27T09:43:10.256Z,200
2019-01-27T09:44:20.572Z,160
2019-01-27T09:45:30.656Z,180
2019-01-27T09:46:40.719Z,230
2019-01-27T09:47:50.553Z,230
2019-01-27T09:49:03.099Z,145
2019-01-27T09:50:13.219Z,165
2019-01-27T09:51:23.303Z,175
2019-01-27T09:52:33.532Z,155
2019-01-27T09:53:43.112Z,140
2019-01-27T09:54:53.286Z,130
2019-01-27T09:56:03.373Z,135
2019-01-27T09:57:14.573Z,160
2019-01-27T09:58:24.716Z,160
2019-01-27T09:59:34.800Z,145
2019-01-27T10:00:44.943Z,135
2019-01-27T10:01:54.785Z,135
2019-01-27T10:03:04.895Z,130
2019-01-27T10:04:14.777Z,130
2019-01-27T10:05:24.842Z,140
2019-01-27T10:06:34.909Z,135
2019-01-27T10:07:44.454Z,155
2019-01-27T10:08:54.534Z,160
2019-01-27T10:10:05.592Z,170
2019-01-27T10:11:15.730Z,165
2019-01-27T10:12:25.812Z,165
2019-01-27T10:13:35.891Z,170
2019-01-27T10:14:45.712Z,165
2019-01-27T10:15:55.839Z,175
2019-01-27T10:17:05.717Z,175
2019-01-27T10:18:15.800Z,175
2019-01-27T10:19:25.852Z,170
2019-01-27T10:20:35.664Z,165
2019-01-27T10:21:46.136Z,165
2019-01-27T10:22:56.445Z,160
2019-01-27T10:24:06.466Z,150
2019-01-27T10:25:23.263Z,150
2019-01-27T10:26:33.628Z,155
2019-01-27T10:27:43.762Z,165
2019-01-27T10:28:53.851Z,160
2019-01-27T10:30:03.759Z,160
2019-01-27T10:31:13.858Z,165
2019-01-27T10:32:23.980Z,165
2019-01-27T10:33:34.065Z,170
2019-01-27T10:34:44.149Z,175
2019-01-27T10:35:54.222Z,190
2019-01-27T10:37:04.300Z,195
2019-01-27T10:38:14.387Z,180
2019-01-27T10:39:24.491Z,180
2019-01-27T10:40:39.607Z,175
2019-01-27T10:41:50.062Z,170
2019-01-27T10:43:00.121Z,160
2019-01-27T10:44:10.790Z,160
2019-01-27T10:45:20.938Z,155
2019-01-27T10:46:31.007Z,155
2019-01-27T10:47:41.065Z,155
2019-01-27T10:48:51.322Z,155
2019-01-27T10:50:03.583Z,150
2019-01-27T10:51:13.771Z,145
2019-01-27T10:52:23.623Z,145
2019-01-27T10:53:41.887Z,145
2019-01-27T10:54:52.248Z,150
2019-01-27T10:56:02.338Z,155
2019-01-27T10:57:12.254Z,150
2019-01-27T10:58:22.323Z,145
2019-01-27T10:59:32.447Z,145
2019-01-27T11:00:42.539Z,145
2019-01-27T11:01:52.357Z,140
2019-01-27T11:03:02.427Z,140
2019-01-27T11:04:12.510Z,140
2019-01-27T11:05:22.622Z,135
2019-01-27T11:06:32.779Z,130
2019-01-27T11:07:42.605Z,130
2019-01-27T11:08:52.198Z,130
2019-01-27T11:10:02.583Z,125
2019-01-27T11:11:12.655Z,130
2019-01-27T11:12:22.750Z,125
2019-01-27T11:13:32.797Z,125
2019-01-27T11:14:42.990Z,125
2019-01-27T11:15:53.171Z,130
2019-01-27T11:17:03.318Z,130
2019-01-27T11:18:13.148Z,130
2019-01-27T11:19:23.212Z,130
2019-01-27T11:20:39.844Z,135
2019-01-27T11:21:50.581Z,135
2019-01-27T11:23:00.394Z,140
2019-01-27T11:24:10.481Z,140
2019-01-27T11:25:20.568Z,140
2019-01-27T11:26:30.454Z,140
2019-01-27T11:27:42.580Z,140
2019-01-27T11:28:52.670Z,140
2019-01-27T11:30:03.706Z,145
2019-01-27T11:31:13.778Z,145
2019-01-27T11:32:23.661Z,145
2019-01-27T11:33:33.733Z,145
2019-01-27T11:34:43.929Z,150
2019-01-27T11:35:53.864Z,145
2019-01-27T11:37:05.456Z,145
2019-01-27T11:38:15.609Z,145
2019-01-27T11:39:25.435Z,145
2019-01-27T11:40:35.703Z,150
2019-01-27T11:41:45.799Z,155
2019-01-27T11:42:55.879Z,145
2019-01-27T11:44:06.167Z,145
2019-01-27T11:45:16.290Z,140
2019-01-27T11:46:26.360Z,140
2019-01-27T11:47:36.197Z,140
2019-01-27T11:48:46.257Z,140
2019-01-27T11:52:25.270Z,140
2019-01-27T11:53:35.395Z,135
2019-01-27T11:54:45.465Z,130
2019-01-27T11:55:55.542Z,125
2019-01-27T11:57:06.092Z,130
2019-01-27T11:58:16.214Z,135
2019-01-27T11:59:26.293Z,145
2019-01-27T12:00:36.555Z,145
2019-01-27T12:01:46.625Z,150
2019-01-27T12:02:56.704Z,150
2019-01-27T12:04:06.844Z,155
2019-01-27T12:05:16.959Z,155
2019-01-27T12:06:27.043Z,160
2019-01-27T12:07:37.453Z,150
2019-01-27T12:08:47.525Z,145
2019-01-27T12:09:57.667Z,140
2019-01-27T12:11:07.754Z,140
2019-01-27T12:12:17.792Z,135
2019-01-27T12:13:28.053Z,145
2019-01-27T12:14:38.587Z,145
2019-01-27T12:15:48.830Z,145
2019-01-27T12:16:58.655Z,150
2019-01-27T12:18:08.766Z,150
2019-01-27T12:19:18.827Z,150
2019-01-27T12:20:28.640Z,150
2019-01-27T12:21:38.704Z,150
2019-01-27T12:22:48.761Z,150
2019-01-27T12:23:59.289Z,140
2019-01-27T12:25:10.466Z,130
2019-01-27T12:26:20.017Z,125
2019-01-27T12:27:29.853Z,125
2019-01-27T12:28:40.160Z,120
2019-01-27T12:29:50.280Z,120
2019-01-27T12:31:00.105Z,120
2019-01-27T12:32:11.058Z,115
2019-01-27T12:33:21.146Z,115
2019-01-27T12:34:31.238Z,115
2019-01-27T12:35:41.303Z,115
2019-01-27T12:36:51.366Z,110
2019-01-27T12:38:01.425Z,110
2019-01-27T12:39:13.180Z,110
2019-01-27T12:40:22.747Z,110
2019-01-27T12:41:32.823Z,110
2019-01-27T12:42:43.119Z,110
2019-01-27T12:43:53.210Z,110
2019-01-27T12:45:04.444Z,110
2019-01-27T12:46:14.499Z,110
2019-01-27T12:47:25.141Z,110
2019-01-27T12:48:35.261Z,110
2019-01-27T12:49:45.116Z,110
2019-01-27T12:50:55.176Z,110
2019-01-27T12:52:07.350Z,110
2019-01-27T12:53:17.419Z,110
2019-01-27T12:54:27.543Z,105
2019-01-27T12:55:37.682Z,105
2019-01-27T12:56:47.809Z,105
2019-01-27T12:57:58.780Z,105
2019-01-27T12:59:08.914Z,105
2019-01-27T13:00:18.731Z,100
2019-01-27T13:01:28.831Z,100
2019-01-27T13:02:38.935Z,95
2019-01-27T13:03:49.044Z,90
2019-01-27T13:04:59.306Z,90
2019-01-27T13:06:09.678Z,85
2019-01-27T13:07:19.782Z,85
2019-01-27T13:08:30.870Z,85
2019-01-27T13:09:41.000Z,85
2019-01-27T13:10:50.794Z,85
2019-01-27T13:12:00.959Z,85
2019-01-27T13:13:14.277Z,80
2019-01-27T13:14:24.457Z,80
2019-01-27T13:15:34.576Z,80
2019-01-27T13:16:44.525Z,75
2019-01-27T13:17:54.608Z,75
2019-01-27T13:19:04.715Z,75
2019-01-27T13:20:16.332Z,85
2019-01-27T13:21:26.358Z,80
2019-01-27T13:22:36.239Z,80
2019-01-27T13:23:46.550Z,80
2019-01-27T13:24:56.409Z,80
2019-01-27T13:26:08.800Z,80
2019-01-27T13:27:19.018Z,80
2019-01-27T13:28:29.102Z,80
2019-01-27T13:29:39.205Z,80
2019-01-27T13:30:49.334Z,80
2019-01-27T13:31:59.482Z,80
2019-01-27T13:33:13.011Z,80
2019-01-27T13:34:22.882Z,75
2019-01-27T13:35:32.987Z,75
2019-01-27T13:36:42.815Z,75
2019-01-27T13:37:53.180Z,70
2019-01-27T13:39:04.117Z,70
2019-01-27T13:40:13.975Z,70
2019-01-27T13:41:24.046Z,70
2019-01-27T13:42:34.114Z,70
2019-01-27T13:43:44.233Z,70
2019-01-27T13:44:54.302Z,70
2019-01-27T13:46:04.124Z,65
2019-01-27T13:47:14.223Z,65
2019-01-27T13:48:24.325Z,65
2019-01-27T13:49:34.414Z,60
2019-01-27T13:50:43.957Z,60
2019-01-27T13:51:54.566Z,60
2019-01-27T13:53:04.373Z,60
2019-01-27T13:54:14.702Z,60
2019-01-27T13:55:24.491Z,60
2019-01-27T13:56:34.307Z,55
2019-01-27T13:57:44.387Z,55
2019-01-27T13:58:54.486Z,55
2019-01-27T14:00:04.549Z,55
2019-01-27T14:01:14.734Z,55
2019-01-27T14:02:24.558Z,55
2019-01-27T14:03:34.946Z,55
2019-01-27T14:04:50.986Z,55
2019-01-27T14:06:01.672Z,55
2019-01-27T14:07:13.584Z,55
2019-01-27T14:08:23.499Z,55
2019-01-27T14:09:33.788Z,50
2019-01-27T14:10:43.589Z,50
2019-01-27T14:11:53.675Z,50
2019-01-27T14:13:03.991Z,45
2019-01-27T14:14:14.124Z,45
2019-01-27T14:15:24.193Z,45
2019-01-27T14:16:34.248Z,45
2019-01-27T14:17:44.073Z,40
2019-01-27T14:18:54.201Z,40
2019-01-27T14:20:04.011Z,40
2019-01-27T14:21:21.392Z,40
2019-01-27T14:22:33.058Z,40
2019-01-27T14:23:43.132Z,35
2019-01-27T14:24:53.318Z,35
2019-01-27T14:26:05.377Z,35
2019-01-27T14:27:15.575Z,35
2019-01-27T14:28:25.683Z,35
2019-01-27T14:29:35.770Z,35
2019-01-27T14:30:45.840Z,35
2019-01-27T14:31:55.959Z,35
2019-01-27T14:33:06.042Z,35
2019-01-27T14:34:16.181Z,35
2019-01-27T14:35:26.265Z,35
2019-01-27T14:36:36.094Z,35
2019-01-27T14:37:45.927Z,35
2019-01-27T14:38:56.005Z,35
2019-01-27T14:40:05.810Z,35
2019-01-27T14:41:16.063Z,35
2019-01-27T14:42:26.220Z,35
2019-01-27T14:43:36.288Z,30
2019-01-27T14:44:46.142Z,30
2019-01-27T14:45:56.379Z,30
2019-01-27T14:47:06.520Z,30
2019-01-27T14:48:16.617Z,30
2019-01-27T14:49:26.429Z,30
2019-01-27T14:50:36.509Z,30
2019-01-27T14:51:46.357Z,30
2019-01-27T14:52:56.190Z,30
2019-01-27T14:54:06.348Z,25
2019-01-27T14:55:16.410Z,25
2019-01-27T14:56:26.512Z,25
2019-01-27T14:57:36.629Z,25
2019-01-27T14:58:47.333Z,25
2019-01-27T14:59:57.221Z,25
2019-01-27T15:01:07.428Z,25
2019-01-27T15:02:17.598Z,25
2019-01-27T15:03:27.459Z,25
2019-01-27T15:04:37.527Z,25
2019-01-27T15:05:47.661Z,25
2019-01-27T15:06:58.000Z,25
2019-01-27T15:08:08.077Z,20
2019-01-27T15:09:18.193Z,20
2019-01-27T15:10:28.413Z,20
2019-01-27T15:11:38.599Z,20
2019-01-27T15:12:48.707Z,20
2019-01-27T15:13:58.818Z,20
2019-01-27T15:15:09.270Z,15
2019-01-27T15:16:19.517Z,15
2019-01-27T15:17:29.587Z,15
2019-01-27T15:18:39.737Z,15
2019-01-27T15:19:49.860Z,15
2019-01-27T15:20:59.996Z,15
2019-01-27T15:22:09.847Z,15
2019-01-27T15:23:20.006Z,15
2019-01-27T15:24:30.134Z,15
2019-01-27T15:25:40.283Z,15
2019-01-27T15:26:50.398Z,15
2019-01-27T15:28:00.513Z,15
2019-01-27T15:29:11.144Z,15
2019-01-27T15:30:21.528Z,15
2019-01-27T15:31:31.834Z,15
2019-01-27T15:32:41.682Z,10
2019-01-27T15:33:51.797Z,10
2019-01-27T15:35:03.525Z,10
2019-01-27T15:36:13.631Z,5
2019-01-27T15:37:23.893Z,5
2019-01-27T15:38:33.705Z,5
2019-01-27T15:39:43.820Z,5
2019-01-27T15:40:53.987Z,5
2019-01-27T15:42:05.622Z,0
2019-01-27T15:43:15.690Z,0
2019-01-27T15:44:25.499Z,0
2019-01-27T15:45:35.608Z,0
2019-01-27T15:46:45.712Z,0
2019-01-27T15:47:55.902Z,0
2019-01-27T15:49:05.964Z,0
2019-01-27T15:50:16.036Z,0
2019-01-27T15:51:26.131Z,0
2019-01-27T15:52:36.239Z,0
2019-01-27T15:53:46.342Z,0
2019-01-27T15:54:56.680Z,0
2019-01-27T15:56:07.257Z,0
2019-01-27T15:57:17.591Z,0
2019-01-27T15:58:27.745Z,0
2019-01-27T15:59:37.938Z,0
2019-01-27T16:00:48.035Z,0
2019-01-27T16:01:57.948Z,0
2019-01-27T16:03:09.331Z,0
2019-01-27T16:04:19.221Z,0
2019-01-27T16:05:29.380Z,0
2019-01-27T16:06:39.273Z,0
2019-01-27T16:07:49.445Z,0
2019-01-27T16:08:59.502Z,0
2019-01-27T16:10:09.668Z,0
2019-01-27T16:11:19.912Z,0
2019-01-27T16:12:30.302Z,0
2019-01-27T16:13:40.400Z,0
2019-01-27T16:14:50.238Z,0
2019-01-27T16:16:00.097Z,0
2019-01-27T16:17:13.856Z,0
2019-01-27T16:18:23.943Z,0
2019-01-27T16:19:34.044Z,0
2019-01-27T16:20:44.138Z,0
2019-01-27T16:21:54.324Z,0
2019-01-27T16:23:05.127Z,0
2019-01-27T16:24:15.192Z,0
2019-01-27T16:25:25.280Z,0
2019-01-27T16:26:35.451Z,0
2019-01-27T16:27:45.507Z,0
2019-01-27T16:28:55.882Z,0
2019-01-27T16:30:06.693Z,0
2019-01-27T16:31:16.807Z,0
2019-01-27T16:32:26.930Z,0
2019-01-27T16:33:36.860Z,0
2019-01-27T16:34:46.964Z,0
2019-01-27T16:35:57.060Z,0
2019-01-27T16:37:07.157Z,0
2019-01-27T16:38:16.997Z,0
2019-01-27T16:39:27.107Z,0
2019-01-27T16:40:42.188Z,0
2019-01-27T16:41:52.280Z,0
2019-01-27T16:43:02.456Z,0
2019-01-27T16:44:12.769Z,0
2019-01-27T16:45:22.935Z,0
2019-01-27T16:46:33.070Z,0
2019-01-27T16:47:43.270Z,0
2019-01-27T16:48:53.393Z,0
2019-01-27T16:50:03.607Z,0
2019-01-27T16:51:13.679Z,0
2019-01-27T16:52:24.311Z,0
2019-01-27T16:53:34.533Z,0
2019-01-27T16:54:44.614Z,0
2019-01-27T16:55:56.113Z,0
2019-01-27T16:57:06.282Z,0
2019-01-27T16:58:16.409Z,0
2019-01-27T16:59:26.552Z,0
2019-01-27T17:00:36.479Z,0
2019-01-27T17:01:46.320Z,0
2019-01-27T17:02:56.450Z,0
2019-01-27T17:04:06.519Z,0
2019-01-27T17:05:16.681Z,0
2019-01-27T17:06:26.813Z,0
2019-01-27T17:07:37.001Z,0
2019-01-27T17:08:46.830Z,0
2019-01-27T17:09:56.926Z,0
2019-01-27T17:11:07.013Z,0
2019-01-27T17:12:17.119Z,0
2019-01-27T17:13:26.980Z,0
2019-01-27T17:14:37.168Z,0
2019-01-27T17:15:47.286Z,0
2019-01-27T17:16:57.519Z,0
2019-01-27T17:18:10.073Z,0
2019-01-27T17:19:20.164Z,0
2019-01-27T17:20:35.165Z,0
2019-01-27T17:21:45.325Z,0